Time;durP1;ratioP1;P1;durP2;ratioP2;P2;SDS_P1;SDS_P2;PMS_P1;PMS_P2;Temp;Humidity;BMP_temperature;BMP_pressure;BME280_temperature;BME280_humidity;BME280_pressure;Samples;Min_cycle;Max_cycle;Signal;HPM_P1;HPM_P2
2022/10/13 00:00:29;;;;;;;;;;;11.20;99.90;;;;;;5111865;27;38022;-59
2022/10/13 00:02:58;;;;;;;;;;;11.20;99.90;;;;;;5113449;27;42145;-59
2022/10/13 00:05:27;;;;;;;;;;;11.20;99.90;;;;;;5114505;27;38918;-60
2022/10/13 00:07:54;;;;;;;;;;;11.20;99.90;;;;;;5114056;27;37601;-59
2022/10/13 00:10:21;;;;;;;;;;;11.20;99.90;;;;;;5114802;27;39882;-59
2022/10/13 00:12:48;;;;;;;;;;;11.20;99.90;;;;;;5113616;27;39068;-59
2022/10/13 00:15:15;;;;;;;;;;;11.10;99.90;;;;;;5114390;27;37568;-59
2022/10/13 00:17:42;;;;;;;;;;;11.10;99.90;;;;;;5114029;27;36803;-59
2022/10/13 00:20:10;;;;;;;;;;;11.20;99.90;;;;;;5114578;27;37318;-60
2022/10/13 00:22:38;;;;;;;;;;;11.20;99.90;;;;;;5114699;27;38605;-60
2022/10/13 00:25:06;;;;;;;;;;;11.20;99.90;;;;;;5113859;27;37614;-60
2022/10/13 00:27:33;;;;;;;;;;;11.20;99.90;;;;;;5113657;27;36529;-59
2022/10/13 00:30:00;;;;;;;;;;;11.20;99.90;;;;;;5113243;27;41681;-59
2022/10/13 00:32:27;;;;;;;;;;;11.20;99.90;;;;;;5114004;27;39123;-59
2022/10/13 00:34:54;;;;;;;;;;;11.20;99.90;;;;;;5114437;27;36512;-60
2022/10/13 00:37:21;;;;;;;;;;;11.20;99.90;;;;;;5114344;27;37290;-59
2022/10/13 00:39:49;;;;;;;;;;;11.20;99.90;;;;;;5113672;27;36528;-57
2022/10/13 00:42:16;;;;;;;;;;;11.20;99.90;;;;;;5112893;27;39094;-59
2022/10/13 00:45:00;;;;;;;;;;;11.20;99.90;;;;;;5112701;27;37383;-59
2022/10/13 00:47:30;;;;;;;;;;;11.20;99.90;;;;;;5112849;27;38589;-58
2022/10/13 00:49:57;;;;;;;;;;;11.20;99.90;;;;;;5114128;27;36544;-59
2022/10/13 00:52:25;;;;;;;;;;;11.20;99.90;;;;;;5113438;27;39214;-58
2022/10/13 00:54:55;;;;;;;;;;;11.20;99.90;;;;;;5113406;27;37379;-58
2022/10/13 00:57:22;;;;;;;;;;;11.20;99.90;;;;;;5114009;27;36428;-57
2022/10/13 00:59:49;;;;;;;;;;;11.20;99.90;;;;;;5111738;27;38217;-57
2022/10/13 01:02:16;;;;;;;;;;;11.30;99.90;;;;;;5114303;27;40250;-59
2022/10/13 01:04:46;;;;;;;;;;;11.20;99.90;;;;;;5114025;27;37744;-58
2022/10/13 01:07:13;;;;;;;;;;;11.30;99.90;;;;;;5114825;27;36897;-57
2022/10/13 01:09:41;;;;;;;;;;;11.40;99.90;;;;;;5112949;27;37493;-57
2022/10/13 01:12:14;;;;;;;;;;;11.20;99.90;;;;;;5113168;27;37309;-58
2022/10/13 01:14:46;;;;;;;;;;;11.20;99.90;;;;;;5112811;27;37717;-57
2022/10/13 01:17:18;;;;;;;;;;;11.30;99.90;;;;;;5113013;27;35876;-57
2022/10/13 01:19:56;;;;;;;;;;;11.20;99.90;;;;;;5116085;27;37451;-58
2022/10/13 01:22:33;;;;;;;;;;;11.30;99.90;;;;;;5117381;27;38820;-57
2022/10/13 01:25:03;;;;;;;;;;;11.30;99.90;;;;;;5116496;27;37711;-57
2022/10/13 01:27:41;;;;;;;;;;;11.20;99.90;;;;;;5116083;27;36515;-57
2022/10/13 01:30:17;;;;;;;;;;;11.30;99.90;;;;;;5116360;27;38125;-57
2022/10/13 01:32:59;;;;;;;;;;;11.30;99.90;;;;;;5117274;27;38165;-57
2022/10/13 01:35:31;;;;;;;;;;;11.30;99.90;;;;;;5117383;27;37800;-57
2022/10/13 01:38:03;;;;;;;;;;;11.30;99.90;;;;;;5117780;27;37379;-58
2022/10/13 01:40:33;;;;;;;;;;;11.30;99.90;;;;;;5117184;27;37389;-57
2022/10/13 01:43:04;;;;;;;;;;;11.30;99.90;;;;;;5117175;27;40059;-57
2022/10/13 01:45:35;;;;;;;;;;;11.30;99.90;;;;;;5115104;27;36394;-57
2022/10/13 01:48:03;;;;;;;;;;;11.30;99.90;;;;;;5117493;27;35069;-58
2022/10/13 01:50:32;;;;;;;;;;;11.30;99.90;;;;;;5116673;27;36452;-57
2022/10/13 01:53:00;;;;;;;;;;;11.40;99.90;;;;;;5116788;27;39788;-57
2022/10/13 01:55:28;;;;;;;;;;;11.40;99.90;;;;;;5116778;27;37249;-57
2022/10/13 01:57:55;;;;;;;;;;;11.30;99.90;;;;;;5117719;27;35607;-57
2022/10/13 02:00:22;;;;;;;;;;;11.40;99.90;;;;;;5113703;27;39200;-57
2022/10/13 02:02:58;;;;;;;;;;;11.30;99.90;;;;;;5116786;27;39394;-57
2022/10/13 02:05:28;;;;;;;;;;;11.30;99.90;;;;;;5116325;27;37290;-57
2022/10/13 02:07:56;;;;;;;;;;;11.30;99.90;;;;;;5116961;27;37481;-58
2022/10/13 02:10:26;;;;;;;;;;;11.30;99.90;;;;;;5117107;27;37624;-58
2022/10/13 02:12:56;;;;;;;;;;;11.30;99.90;;;;;;5116956;27;37310;-57
2022/10/13 02:15:25;;;;;;;;;;;11.30;99.90;;;;;;5114479;27;38801;-57
2022/10/13 02:17:55;;;;;;;;;;;11.30;99.90;;;;;;5116121;27;35731;-58
2022/10/13 02:20:22;;;;;;;;;;;11.30;99.90;;;;;;5117015;27;36505;-58
2022/10/13 02:22:54;;;;;;;;;;;11.30;99.90;;;;;;5116525;27;38451;-57
2022/10/13 02:25:21;;;;;;;;;;;11.30;99.90;;;;;;5116627;27;37766;-58
2022/10/13 02:27:48;;;;;;;;;;;11.30;99.90;;;;;;5115224;27;37131;-58
2022/10/13 02:30:23;;;;;;;;;;;11.30;99.90;;;;;;5115230;27;39170;-57
2022/10/13 02:32:50;;;;;;;;;;;11.30;99.90;;;;;;5115552;27;39890;-58
2022/10/13 02:35:19;;;;;;;;;;;11.30;99.90;;;;;;5115473;27;37354;-57
2022/10/13 02:37:46;;;;;;;;;;;11.20;99.90;;;;;;5116902;27;36039;-57
2022/10/13 02:40:13;;;;;;;;;;;11.20;99.90;;;;;;5115642;27;36569;-57
2022/10/13 02:42:40;;;;;;;;;;;11.20;99.90;;;;;;5116266;27;38479;-57
2022/10/13 02:45:07;;;;;;;;;;;11.20;99.90;;;;;;5115042;27;38196;-57
2022/10/13 02:47:34;;;;;;;;;;;11.20;99.90;;;;;;5115483;27;36371;-57
2022/10/13 02:50:01;;;;;;;;;;;11.20;99.90;;;;;;5115538;27;39162;-58
2022/10/13 02:52:30;;;;;;;;;;;11.20;99.90;;;;;;5115032;27;37966;-58
2022/10/13 02:54:57;;;;;;;;;;;11.20;99.90;;;;;;5116427;27;37201;-57
2022/10/13 02:57:24;;;;;;;;;;;11.20;99.90;;;;;;5114563;27;37021;-59
2022/10/13 02:59:51;;;;;;;;;;;11.20;99.90;;;;;;5115230;27;39968;-59
2022/10/13 03:02:18;;;;;;;;;;;11.20;99.90;;;;;;5115375;27;38590;-60
2022/10/13 03:04:45;;;;;;;;;;;11.20;99.90;;;;;;5115968;27;37294;-59
2022/10/13 03:07:12;;;;;;;;;;;11.20;99.90;;;;;;5114918;27;36511;-59
2022/10/13 03:09:41;;;;;;;;;;;11.20;99.90;;;;;;5115946;27;38537;-59
2022/10/13 03:12:08;;;;;;;;;;;11.30;99.90;;;;;;5116006;27;38149;-59
2022/10/13 03:14:35;;;;;;;;;;;11.20;99.90;;;;;;5114884;27;37793;-59
2022/10/13 03:17:02;;;;;;;;;;;11.20;99.90;;;;;;5114524;27;37469;-59
2022/10/13 03:19:29;;;;;;;;;;;11.20;99.90;;;;;;5114464;27;40718;-60
2022/10/13 03:21:56;;;;;;;;;;;11.20;99.90;;;;;;5116660;27;38251;-59
2022/10/13 03:24:23;;;;;;;;;;;11.30;99.90;;;;;;5115183;27;37833;-59
2022/10/13 03:26:52;;;;;;;;;;;11.20;99.90;;;;;;5115588;27;35644;-60
2022/10/13 03:29:19;;;;;;;;;;;11.20;99.90;;;;;;5115182;27;38516;-59
2022/10/13 03:31:46;;;;;;;;;;;11.20;99.90;;;;;;5114684;27;37642;-60
2022/10/13 03:34:15;;;;;;;;;;;11.20;99.90;;;;;;5114011;27;37386;-59
2022/10/13 03:36:42;;;;;;;;;;;11.20;99.90;;;;;;5114882;27;39032;-59
2022/10/13 03:39:09;;;;;;;;;;;11.20;99.90;;;;;;5114528;27;36509;-59
2022/10/13 03:41:36;;;;;;;;;;;11.20;99.90;;;;;;5114740;27;38237;-59
2022/10/13 03:44:05;;;;;;;;;;;11.20;99.90;;;;;;5114022;27;36336;-59
2022/10/13 03:46:32;;;;;;;;;;;11.20;99.90;;;;;;5114145;27;36357;-57
2022/10/13 03:48:59;;;;;;;;;;;11.20;99.90;;;;;;5115128;27;38406;-57
2022/10/13 03:51:26;;;;;;;;;;;11.20;99.90;;;;;;5115092;27;37335;-57
2022/10/13 03:53:53;;;;;;;;;;;11.20;99.90;;;;;;5113793;27;38352;-57
2022/10/13 03:56:21;;;;;;;;;;;11.20;99.90;;;;;;5114413;27;37044;-57
2022/10/13 03:58:52;;;;;;;;;;;11.20;99.90;;;;;;5113380;27;36470;-57
2022/10/13 04:01:21;;;;;;;;;;;11.20;99.90;;;;;;5113196;27;37076;-57
2022/10/13 04:03:48;;;;;;;;;;;11.20;99.90;;;;;;5112827;27;37304;-57
2022/10/13 04:06:16;;;;;;;;;;;11.20;99.90;;;;;;5113755;27;38019;-57
2022/10/13 04:08:43;;;;;;;;;;;11.20;99.90;;;;;;5114423;27;37823;-57
2022/10/13 04:11:11;;;;;;;;;;;11.30;99.90;;;;;;5113514;27;37717;-57
2022/10/13 04:13:38;;;;;;;;;;;11.20;99.90;;;;;;5113595;27;37173;-57
2022/10/13 04:16:06;;;;;;;;;;;11.20;99.90;;;;;;5114513;27;36393;-57
2022/10/13 04:18:35;;;;;;;;;;;11.20;99.90;;;;;;5113904;27;37763;-57
2022/10/13 04:21:02;;;;;;;;;;;11.20;99.90;;;;;;5113508;27;39183;-57
2022/10/13 04:23:29;;;;;;;;;;;11.20;99.90;;;;;;5115143;27;37167;-57
2022/10/13 04:25:56;;;;;;;;;;;11.20;99.90;;;;;;5113130;27;37054;-57
2022/10/13 04:28:23;;;;;;;;;;;11.20;99.90;;;;;;5113986;27;39302;-57
2022/10/13 04:30:50;;;;;;;;;;;11.20;99.90;;;;;;5112765;27;38534;-57
2022/10/13 04:33:17;;;;;;;;;;;11.20;99.90;;;;;;5113283;27;37500;-57
2022/10/13 04:35:46;;;;;;;;;;;11.20;99.90;;;;;;5111827;27;36299;-57
2022/10/13 04:38:13;;;;;;;;;;;11.20;99.90;;;;;;5113233;27;37928;-57
2022/10/13 04:40:40;;;;;;;;;;;11.20;99.90;;;;;;5113249;27;39803;-57
2022/10/13 04:43:07;;;;;;;;;;;11.20;99.90;;;;;;5114756;27;37614;-58
2022/10/13 04:45:34;;;;;;;;;;;11.20;99.90;;;;;;5114709;27;36434;-57
2022/10/13 04:48:01;;;;;;;;;;;11.20;99.90;;;;;;5114466;27;37655;-57
2022/10/13 04:50:28;;;;;;;;;;;11.20;99.90;;;;;;5113190;27;37011;-57
2022/10/13 04:52:56;;;;;;;;;;;11.10;99.90;;;;;;5112032;27;37578;-58
2022/10/13 04:55:23;;;;;;;;;;;11.20;99.90;;;;;;5116139;27;36513;-57
2022/10/13 04:57:50;;;;;;;;;;;11.20;99.90;;;;;;5116110;27;37976;-57
2022/10/13 05:00:17;;;;;;;;;;;11.20;99.90;;;;;;5112294;27;38569;-57
2022/10/13 05:02:44;;;;;;;;;;;11.20;99.90;;;;;;5116299;27;38067;-57
2022/10/13 05:05:11;;;;;;;;;;;11.20;99.90;;;;;;5115533;27;36589;-57
2022/10/13 05:07:38;;;;;;;;;;;11.20;99.90;;;;;;5113144;27;38567;-57
2022/10/13 05:10:07;;;;;;;;;;;11.20;99.90;;;;;;5111365;27;38418;-57
2022/10/13 05:12:34;;;;;;;;;;;11.20;99.90;;;;;;5113935;27;38515;-57
2022/10/13 05:15:02;;;;;;;;;;;11.20;99.90;;;;;;5112977;27;36414;-57
2022/10/13 05:17:30;;;;;;;;;;;11.20;99.90;;;;;;5115807;27;36500;-57
2022/10/13 05:19:57;;;;;;;;;;;11.20;99.90;;;;;;5113215;27;39165;-57
2022/10/13 05:22:24;;;;;;;;;;;11.20;99.90;;;;;;5115618;27;38253;-57
2022/10/13 05:24:51;;;;;;;;;;;11.20;99.90;;;;;;5113429;27;35109;-57
2022/10/13 05:27:21;;;;;;;;;;;11.20;99.90;;;;;;5115775;27;38850;-57
2022/10/13 05:29:48;;;;;;;;;;;11.20;99.90;;;;;;5117168;27;39364;-58
2022/10/13 05:32:15;;;;;;;;;;;11.20;99.90;;;;;;5115697;27;37756;-57
2022/10/13 05:34:42;;;;;;;;;;;11.20;99.90;;;;;;5116398;27;35147;-57
2022/10/13 05:37:09;;;;;;;;;;;11.20;99.90;;;;;;5116377;27;39679;-57
2022/10/13 05:39:36;;;;;;;;;;;11.30;99.90;;;;;;5113978;27;38074;-58
2022/10/13 05:42:04;;;;;;;;;;;11.30;99.90;;;;;;5116364;27;38810;-57
2022/10/13 05:44:32;;;;;;;;;;;11.30;99.90;;;;;;5117241;27;36956;-57
2022/10/13 05:46:59;;;;;;;;;;;11.30;99.90;;;;;;5116153;27;37586;-57
2022/10/13 05:49:26;;;;;;;;;;;11.30;99.90;;;;;;5117212;27;39326;-57
2022/10/13 05:51:55;;;;;;;;;;;11.30;99.90;;;;;;5115521;27;37801;-57
2022/10/13 05:54:23;;;;;;;;;;;11.30;99.90;;;;;;5116432;27;36473;-58
2022/10/13 05:56:53;;;;;;;;;;;11.30;99.90;;;;;;5115115;27;38515;-58
2022/10/13 05:59:20;;;;;;;;;;;11.30;99.90;;;;;;5114765;27;38818;-57
2022/10/13 06:01:49;;;;;;;;;;;11.30;99.90;;;;;;5112106;27;37823;-57
2022/10/13 06:04:18;;;;;;;;;;;11.30;99.90;;;;;;5114237;27;37453;-57
2022/10/13 06:06:45;;;;;;;;;;;11.30;99.90;;;;;;5116260;27;37640;-58
2022/10/13 06:09:12;;;;;;;;;;;11.30;99.90;;;;;;5111697;27;38111;-57
2022/10/13 06:11:39;;;;;;;;;;;11.30;99.90;;;;;;5115215;27;36838;-57
2022/10/13 06:14:06;;;;;;;;;;;11.30;99.90;;;;;;5113332;27;36479;-57
2022/10/13 06:16:34;;;;;;;;;;;11.30;99.90;;;;;;5113212;27;40357;-57
2022/10/13 06:19:02;;;;;;;;;;;11.30;99.90;;;;;;5114311;27;38388;-58
2022/10/13 06:21:29;;;;;;;;;;;11.30;99.90;;;;;;5112348;27;38522;-57
2022/10/13 06:23:56;;;;;;;;;;;11.40;99.90;;;;;;5114926;27;36402;-57
2022/10/13 06:26:23;;;;;;;;;;;11.40;99.90;;;;;;5115560;27;38677;-57
2022/10/13 06:28:50;;;;;;;;;;;11.40;99.90;;;;;;5106868;27;37156;-57
2022/10/13 06:31:17;;;;;;;;;;;11.40;99.90;;;;;;5105845;27;39923;-57
2022/10/13 06:33:44;;;;;;;;;;;11.50;99.90;;;;;;5107680;27;37707;-57
2022/10/13 06:36:13;;;;;;;;;;;11.50;99.90;;;;;;5108981;27;37985;-57
2022/10/13 06:38:40;;;;;;;;;;;11.50;99.90;;;;;;5108954;27;38517;-57
2022/10/13 06:41:07;;;;;;;;;;;11.50;99.90;;;;;;5109328;27;36510;-57
2022/10/13 06:43:34;;;;;;;;;;;11.50;99.90;;;;;;5109599;27;36542;-58
2022/10/13 06:46:01;;;;;;;;;;;11.50;99.90;;;;;;5109614;27;36450;-58
2022/10/13 06:48:28;;;;;;;;;;;11.50;99.90;;;;;;5109480;27;39242;-58
2022/10/13 06:50:56;;;;;;;;;;;11.50;99.90;;;;;;5110205;27;36212;-58
2022/10/13 06:53:24;;;;;;;;;;;11.50;99.90;;;;;;5107435;27;37426;-58
2022/10/13 06:55:51;;;;;;;;;;;11.50;99.90;;;;;;5110344;27;40370;-58
2022/10/13 06:58:18;;;;;;;;;;;11.60;99.90;;;;;;5109484;27;38869;-59
2022/10/13 07:00:45;;;;;;;;;;;11.60;99.90;;;;;;5109934;27;39275;-58
2022/10/13 07:03:12;;;;;;;;;;;11.60;99.90;;;;;;5109577;27;36262;-58
2022/10/13 07:05:39;;;;;;;;;;;11.60;99.90;;;;;;5109448;27;38093;-57
2022/10/13 07:08:06;;;;;;;;;;;11.60;99.90;;;;;;5108321;27;39153;-58
2022/10/13 07:10:37;;;;;;;;;;;11.70;99.90;;;;;;5109227;27;37353;-58
2022/10/13 07:13:04;;;;;;;;;;;11.70;99.90;;;;;;5107692;27;37674;-58
2022/10/13 07:15:31;;;;;;;;;;;11.70;99.90;;;;;;5109034;27;38564;-59
2022/10/13 07:17:58;;;;;;;;;;;11.70;99.90;;;;;;5108209;27;38567;-59
2022/10/13 07:20:25;;;;;;;;;;;11.80;99.90;;;;;;5108879;27;37395;-58
2022/10/13 07:22:53;;;;;;;;;;;11.80;99.90;;;;;;5108952;27;36921;-59
2022/10/13 07:25:20;;;;;;;;;;;11.80;99.90;;;;;;5108870;27;38305;-59
2022/10/13 07:27:48;;;;;;;;;;;11.90;99.90;;;;;;5108101;27;38121;-59
2022/10/13 07:30:16;;;;;;;;;;;11.90;99.90;;;;;;5106648;27;37387;-57
2022/10/13 07:32:43;;;;;;;;;;;12.00;99.90;;;;;;5100130;27;37723;-57
2022/10/13 07:35:10;;;;;;;;;;;12.00;99.90;;;;;;5107310;27;38222;-57
2022/10/13 07:37:37;;;;;;;;;;;12.00;99.90;;;;;;5107734;27;38912;-57
2022/10/13 07:40:05;;;;;;;;;;;12.10;99.90;;;;;;5108533;27;37256;-57
2022/10/13 07:42:32;;;;;;;;;;;12.10;99.90;;;;;;5109557;27;33603;-57
2022/10/13 07:45:01;;;;;;;;;;;12.10;99.90;;;;;;5106516;27;37860;-57
2022/10/13 07:47:28;;;;;;;;;;;12.10;99.90;;;;;;5108103;27;38664;-57
2022/10/13 07:49:55;;;;;;;;;;;12.10;99.90;;;;;;5106291;27;36321;-57
2022/10/13 07:52:22;;;;;;;;;;;12.10;99.90;;;;;;5104650;27;36541;-57
2022/10/13 07:54:49;;;;;;;;;;;12.20;99.90;;;;;;5107776;27;38254;-57
2022/10/13 07:57:16;;;;;;;;;;;12.20;99.90;;;;;;5108447;27;39759;-57
2022/10/13 07:59:44;;;;;;;;;;;12.20;99.90;;;;;;5108185;27;38329;-57
2022/10/13 08:02:12;;;;;;;;;;;12.30;99.90;;;;;;5105875;27;36519;-57
2022/10/13 08:04:39;;;;;;;;;;;12.30;99.90;;;;;;5107660;27;37942;-57
2022/10/13 08:07:06;;;;;;;;;;;12.40;99.90;;;;;;5108105;27;39039;-57
2022/10/13 08:09:33;;;;;;;;;;;12.40;99.90;;;;;;5100738;27;37645;-59
2022/10/13 08:12:00;;;;;;;;;;;12.40;99.90;;;;;;5097785;27;36402;-59
2022/10/13 08:14:27;;;;;;;;;;;12.50;99.90;;;;;;5108347;27;37470;-59
2022/10/13 08:16:54;;;;;;;;;;;12.50;99.90;;;;;;5106930;27;37742;-59
2022/10/13 08:19:25;;;;;;;;;;;12.50;99.90;;;;;;5106949;27;36239;-59
2022/10/13 08:21:52;;;;;;;;;;;12.50;99.90;;;;;;5107098;27;37078;-59
2022/10/13 08:24:21;;;;;;;;;;;12.50;99.90;;;;;;5107643;27;36526;-58
2022/10/13 08:26:48;;;;;;;;;;;12.50;99.90;;;;;;5106589;27;39779;-59
2022/10/13 08:29:15;;;;;;;;;;;12.50;99.90;;;;;;5105174;27;37031;-59
2022/10/13 08:31:42;;;;;;;;;;;12.50;99.90;;;;;;5106330;27;36625;-58
2022/10/13 08:34:10;;;;;;;;;;;12.60;99.90;;;;;;5107807;27;36476;-59
2022/10/13 08:36:38;;;;;;;;;;;12.60;99.90;;;;;;5107064;27;39026;-59
2022/10/13 08:39:06;;;;;;;;;;;12.60;99.90;;;;;;5105429;27;39483;-58
2022/10/13 08:41:36;;;;;;;;;;;12.60;99.90;;;;;;5106462;27;36254;-58
2022/10/13 08:44:04;;;;;;;;;;;12.60;99.90;;;;;;5106463;27;37149;-59
2022/10/13 08:46:37;;;;;;;;;;;12.60;99.90;;;;;;5106741;27;38801;-58
2022/10/13 08:49:05;;;;;;;;;;;12.60;99.90;;;;;;5108035;27;37791;-59
2022/10/13 08:51:32;;;;;;;;;;;12.60;99.90;;;;;;5107542;27;36341;-58
2022/10/13 08:54:00;;;;;;;;;;;12.60;99.90;;;;;;5106892;27;38433;-59
2022/10/13 08:56:30;;;;;;;;;;;12.70;99.90;;;;;;5107495;27;39303;-58
2022/10/13 08:58:57;;;;;;;;;;;12.70;99.90;;;;;;5106461;27;38001;-59
2022/10/13 09:01:26;;;;;;;;;;;12.70;99.90;;;;;;5106552;27;35838;-58
2022/10/13 09:03:55;;;;;;;;;;;12.70;99.90;;;;;;5108518;27;20670;-59
2022/10/13 09:06:27;;;;;;;;;;;12.70;99.90;;;;;;5107418;27;38338;-58
2022/10/13 09:08:56;;;;;;;;;;;12.70;99.90;;;;;;5108117;27;38201;-58
2022/10/13 09:11:25;;;;;;;;;;;12.70;99.90;;;;;;5105056;27;36527;-58
2022/10/13 09:13:58;;;;;;;;;;;12.80;99.90;;;;;;5107330;27;36470;-58
2022/10/13 09:16:30;;;;;;;;;;;12.80;99.90;;;;;;5105879;27;40528;-58
2022/10/13 09:19:11;;;;;;;;;;;12.80;99.90;;;;;;5105695;27;38963;-58
2022/10/13 09:21:38;;;;;;;;;;;12.80;99.90;;;;;;5105718;27;36230;-58
2022/10/13 09:24:06;;;;;;;;;;;12.80;99.90;;;;;;5105762;27;37985;-58
2022/10/13 09:26:37;;;;;;;;;;;12.90;99.90;;;;;;5106703;27;38113;-58
2022/10/13 09:29:08;;;;;;;;;;;12.90;99.90;;;;;;5106311;27;37576;-57
2022/10/13 09:31:36;;;;;;;;;;;12.90;99.90;;;;;;5106984;27;35843;-57
2022/10/13 09:34:11;;;;;;;;;;;12.90;99.90;;;;;;5107235;27;37966;-57
2022/10/13 09:36:38;;;;;;;;;;;13.00;99.90;;;;;;5107802;27;37206;-57
2022/10/13 09:39:07;;;;;;;;;;;12.90;99.90;;;;;;5106720;27;37517;-57
2022/10/13 09:41:36;;;;;;;;;;;12.90;99.90;;;;;;5111067;27;36431;-57
2022/10/13 09:44:08;;;;;;;;;;;13.00;99.90;;;;;;5112009;27;37535;-57
2022/10/13 09:46:37;;;;;;;;;;;13.00;99.90;;;;;;5110684;27;36939;-57
2022/10/13 09:49:06;;;;;;;;;;;13.00;99.90;;;;;;5111009;27;36241;-57
2022/10/13 09:51:35;;;;;;;;;;;13.00;99.90;;;;;;5109398;27;37398;-57
2022/10/13 09:54:02;;;;;;;;;;;13.00;99.90;;;;;;5109904;27;39008;-57
2022/10/13 09:56:33;;;;;;;;;;;13.10;99.90;;;;;;5110313;27;38355;-57
2022/10/13 09:59:05;;;;;;;;;;;13.10;99.90;;;;;;5110901;27;38790;-57
2022/10/13 10:01:34;;;;;;;;;;;13.10;99.90;;;;;;5109676;27;36052;-57
2022/10/13 10:04:03;;;;;;;;;;;13.10;99.90;;;;;;5108245;27;36513;-58
2022/10/13 10:06:30;;;;;;;;;;;13.20;99.90;;;;;;5108520;27;39603;-59
2022/10/13 10:08:58;;;;;;;;;;;13.20;99.90;;;;;;5108921;27;36846;-59
2022/10/13 10:11:28;;;;;;;;;;;13.20;99.90;;;;;;5105364;27;36468;-58
2022/10/13 10:13:55;;;;;;;;;;;13.30;99.90;;;;;;5105487;27;36386;-59
2022/10/13 10:16:30;;;;;;;;;;;13.30;99.90;;;;;;5106594;27;38834;-58
2022/10/13 10:19:00;;;;;;;;;;;13.30;99.90;;;;;;5106207;27;37252;-59
2022/10/13 10:21:31;;;;;;;;;;;13.40;99.90;;;;;;5104845;27;35245;-58
2022/10/13 10:24:01;;;;;;;;;;;13.40;99.90;;;;;;5104642;27;36513;-58
2022/10/13 10:26:30;;;;;;;;;;;13.50;99.90;;;;;;5105169;27;39253;-58
2022/10/13 10:29:06;;;;;;;;;;;13.40;99.90;;;;;;5103058;27;39084;-58
2022/10/13 10:31:38;;;;;;;;;;;13.50;99.90;;;;;;5104884;27;35156;-58
2022/10/13 10:34:17;;;;;;;;;;;13.40;99.90;;;;;;5105170;27;38009;-58
2022/10/13 10:36:48;;;;;;;;;;;13.40;99.90;;;;;;5103900;27;38006;-59
2022/10/13 10:39:21;;;;;;;;;;;13.50;99.90;;;;;;5103609;27;36919;-59
2022/10/13 10:41:50;;;;;;;;;;;13.50;99.90;;;;;;5106269;27;35204;-58
2022/10/13 10:44:20;;;;;;;;;;;13.40;99.90;;;;;;5104094;27;38903;-59
2022/10/13 10:46:49;;;;;;;;;;;13.40;99.90;;;;;;5105866;27;39915;-58
2022/10/13 10:49:18;;;;;;;;;;;13.50;99.90;;;;;;5105736;27;36351;-58
2022/10/13 10:51:46;;;;;;;;;;;13.50;99.90;;;;;;5105290;27;36451;-59
2022/10/13 10:54:26;;;;;;;;;;;13.50;99.90;;;;;;5105791;27;36363;-59
2022/10/13 10:56:55;;;;;;;;;;;13.50;99.90;;;;;;5105816;27;38382;-59
2022/10/13 10:59:28;;;;;;;;;;;13.50;99.90;;;;;;5106141;27;37254;-59
2022/10/13 11:02:00;;;;;;;;;;;13.50;99.90;;;;;;5104997;27;38279;-59
2022/10/13 11:04:36;;;;;;;;;;;13.50;99.90;;;;;;5106579;27;37618;-58
2022/10/13 11:07:03;;;;;;;;;;;13.50;99.90;;;;;;5106863;27;37343;-58
2022/10/13 11:09:51;;;;;;;;;;;13.50;99.90;;;;;;5105665;27;38427;-58
2022/10/13 11:12:22;;;;;;;;;;;13.50;99.90;;;;;;5105849;27;35991;-58
2022/10/13 11:15:02;;;;;;;;;;;13.60;99.90;;;;;;5106305;27;38530;-58
2022/10/13 11:17:31;;;;;;;;;;;13.60;99.90;;;;;;5105315;27;39207;-59
2022/10/13 11:19:59;;;;;;;;;;;13.60;99.90;;;;;;5105699;27;40107;-59
2022/10/13 11:22:26;;;;;;;;;;;13.70;99.90;;;;;;5106295;27;36438;-59
2022/10/13 11:25:00;;;;;;;;;;;13.80;99.90;;;;;;5106017;27;36626;-59
2022/10/13 11:27:36;;;;;;;;;;;13.80;99.90;;;;;;5106818;27;37959;-58
2022/10/13 11:30:04;;;;;;;;;;;13.80;99.90;;;;;;5104834;27;37686;-58
2022/10/13 11:32:54;;;;;;;;;;;13.80;99.90;;;;;;5104530;27;38406;-59
2022/10/13 11:35:25;;;;;;;;;;;13.80;99.90;;;;;;5106060;27;38709;-58
2022/10/13 11:37:59;;;;;;;;;;;13.80;99.90;;;;;;5105559;27;38003;-59
2022/10/13 11:40:32;;;;;;;;;;;13.80;99.90;;;;;;5105573;27;36382;-58
2022/10/13 11:43:05;;;;;;;;;;;13.80;99.90;;;;;;5106163;27;37668;-58
2022/10/13 11:45:41;;;;;;;;;;;13.80;99.90;;;;;;5105308;27;37575;-58
2022/10/13 11:48:32;;;;;;;;;;;13.90;99.90;;;;;;5102752;27;38383;-57
2022/10/13 11:51:06;;;;;;;;;;;13.90;99.90;;;;;;5100649;27;36512;-57
2022/10/13 11:53:39;;;;;;;;;;;13.90;99.90;;;;;;5105586;27;38162;-57
2022/10/13 11:56:18;;;;;;;;;;;13.90;99.90;;;;;;5105610;27;39157;-57
2022/10/13 11:58:45;;;;;;;;;;;13.90;99.90;;;;;;5104822;27;38292;-57
2022/10/13 12:01:14;;;;;;;;;;;13.90;99.90;;;;;;5105697;27;38820;-57
2022/10/13 12:03:42;;;;;;;;;;;14.00;99.90;;;;;;5103982;27;36128;-57
2022/10/13 12:06:25;;;;;;;;;;;14.00;99.90;;;;;;5105445;27;37620;-57
2022/10/13 12:08:52;;;;;;;;;;;14.00;99.90;;;;;;5104776;27;39780;-57
2022/10/13 12:11:24;;;;;;;;;;;14.00;99.90;;;;;;5105283;27;38522;-57
2022/10/13 12:13:51;;;;;;;;;;;14.10;99.90;;;;;;5105271;27;35860;-58
2022/10/13 12:16:18;;;;;;;;;;;14.10;99.90;;;;;;5105815;27;37743;-57
2022/10/13 12:18:45;;;;;;;;;;;14.10;99.90;;;;;;5104790;27;38468;-57
2022/10/13 12:21:15;;;;;;;;;;;14.10;99.90;;;;;;5105861;27;38206;-57
2022/10/13 12:23:43;;;;;;;;;;;14.10;99.90;;;;;;5104841;27;37219;-57
2022/10/13 12:26:14;;;;;;;;;;;14.10;99.90;;;;;;5105088;27;37806;-57
2022/10/13 12:28:48;;;;;;;;;;;14.10;99.90;;;;;;5104912;27;38788;-57
2022/10/13 12:31:17;;;;;;;;;;;14.10;99.90;;;;;;5104666;27;38810;-57
2022/10/13 12:33:51;;;;;;;;;;;14.20;99.90;;;;;;5104125;27;36222;-57
2022/10/13 12:36:19;;;;;;;;;;;14.20;99.90;;;;;;5104954;27;37620;-57
2022/10/13 12:38:49;;;;;;;;;;;14.20;99.90;;;;;;5104802;27;37115;-57
2022/10/13 12:41:17;;;;;;;;;;;14.20;99.90;;;;;;5105141;27;37442;-57
2022/10/13 12:43:45;;;;;;;;;;;14.20;99.90;;;;;;5104255;27;36267;-57
2022/10/13 12:46:12;;;;;;;;;;;14.20;99.90;;;;;;5104902;27;36340;-57
2022/10/13 12:48:39;;;;;;;;;;;14.20;99.90;;;;;;5104559;27;38637;-57
2022/10/13 12:51:14;;;;;;;;;;;14.30;99.90;;;;;;5105451;27;36709;-58
2022/10/13 12:53:41;;;;;;;;;;;14.30;99.90;;;;;;5105091;27;36365;-57
2022/10/13 12:56:18;;;;;;;;;;;14.30;99.90;;;;;;5104716;27;39602;-57
2022/10/13 12:58:45;;;;;;;;;;;14.30;99.90;;;;;;5103542;27;38324;-56
2022/10/13 13:01:26;;;;;;;;;;;14.30;99.90;;;;;;5103242;27;38269;-57
2022/10/13 13:03:54;;;;;;;;;;;14.30;99.90;;;;;;5103559;27;36122;-57
2022/10/13 13:06:30;;;;;;;;;;;14.30;99.90;;;;;;5104611;27;37689;-57
2022/10/13 13:09:07;;;;;;;;;;;14.30;99.90;;;;;;5104159;27;38546;-57
2022/10/13 13:11:37;;;;;;;;;;;14.30;99.90;;;;;;5104325;27;37475;-57
2022/10/13 13:14:24;;;;;;;;;;;14.30;99.90;;;;;;5104852;27;35210;-57
2022/10/13 13:17:08;;;;;;;;;;;14.30;99.90;;;;;;5106077;27;37710;-57
2022/10/13 13:19:35;;;;;;;;;;;14.30;99.90;;;;;;5107017;27;38035;-57
2022/10/13 13:22:03;;;;;;;;;;;14.30;99.90;;;;;;5108205;27;38448;-57
2022/10/13 13:24:30;;;;;;;;;;;14.30;99.90;;;;;;5107977;27;37042;-57
2022/10/13 13:26:59;;;;;;;;;;;14.30;99.90;;;;;;5108119;27;37621;-57
2022/10/13 13:29:26;;;;;;;;;;;14.30;99.90;;;;;;5107892;27;38734;-57
2022/10/13 13:31:53;;;;;;;;;;;14.30;99.90;;;;;;5106748;27;37391;-59
2022/10/13 13:34:20;;;;;;;;;;;14.30;99.90;;;;;;5108650;27;35640;-59
2022/10/13 13:36:49;;;;;;;;;;;14.30;99.90;;;;;;5107730;27;38546;-59
2022/10/13 13:39:17;;;;;;;;;;;14.30;99.90;;;;;;5107465;27;38657;-58
2022/10/13 13:41:44;;;;;;;;;;;14.40;99.90;;;;;;5106703;27;38061;-58
2022/10/13 13:44:13;;;;;;;;;;;14.30;99.90;;;;;;5107545;27;36482;-59
2022/10/13 13:46:40;;;;;;;;;;;14.40;99.90;;;;;;5106492;27;38280;-59
2022/10/13 13:49:09;;;;;;;;;;;14.30;99.90;;;;;;5107610;27;37061;-58
2022/10/13 13:51:36;;;;;;;;;;;14.30;99.90;;;;;;5107474;27;37405;-58
2022/10/13 13:54:03;;;;;;;;;;;14.30;99.90;;;;;;5106854;27;37935;-59
2022/10/13 13:56:30;;;;;;;;;;;14.30;99.90;;;;;;5107796;27;36525;-59
2022/10/13 13:58:57;;;;;;;;;;;14.30;99.90;;;;;;5105994;27;38269;-59
2022/10/13 14:01:25;;;;;;;;;;;14.30;99.90;;;;;;5105275;27;37773;-58
2022/10/13 14:03:52;;;;;;;;;;;14.30;99.90;;;;;;5107993;27;35660;-58
2022/10/13 14:06:20;;;;;;;;;;;14.20;99.90;;;;;;5107194;27;37559;-59
2022/10/13 14:08:47;;;;;;;;;;;14.20;99.90;;;;;;5107159;27;38839;-59
2022/10/13 14:11:14;;;;;;;;;;;14.20;99.90;;;;;;5106605;27;37009;-58
2022/10/13 14:13:41;;;;;;;;;;;14.20;99.90;;;;;;5106410;27;37079;-59
2022/10/13 14:16:10;;;;;;;;;;;14.20;99.90;;;;;;5105245;27;36540;-59
2022/10/13 14:18:39;;;;;;;;;;;14.20;99.90;;;;;;5106507;27;39865;-59
2022/10/13 14:21:06;;;;;;;;;;;14.30;99.90;;;;;;5107364;27;37824;-59
2022/10/13 14:23:33;;;;;;;;;;;14.30;99.90;;;;;;5106631;27;37387;-59
2022/10/13 14:26:04;;;;;;;;;;;14.20;99.90;;;;;;5106028;27;38491;-59